Time;durP1;ratioP1;P1;durP2;ratioP2;P2;SDS_P1;SDS_P2;PMS_P1;PMS_P2;Temp;Humidity;BMP_temperature;BMP_pressure;BME280_temperature;BME280_humidity;BME280_pressure;Samples;Min_cycle;Max_cycle;Signal;HPM_P1;HPM_P2
2022/08/12 00:44:32;;;;;;;;;;;;;;;;;;5052714;28;19920;-57
2022/08/12 00:46:57;;;;;;;;;;;;;;;;;;5053828;28;19927;-52
2022/08/12 00:49:23;;;;;;;;;;;;;;;;;;5051885;28;19964;-56
2022/08/12 00:52:07;;;;;;;;;;;;;;;;;;5052759;28;20578;-55
2022/08/12 00:54:36;;;;;;;;;;;;;;;;;;5052293;28;20605;-56
2022/08/12 00:57:02;;;;;;;;;;;;;;;;;;5040886;28;20551;-55
2022/08/12 00:59:31;;;;;;;;;;;;;;;;;;5051585;28;19916;-54
2022/08/12 01:01:56;;;;;;;;;;;;;;;;;;5040446;28;19917;-54
2022/08/12 01:12:32;;;;;;;;;;;;;;;;;;5051934;28;19916;-51
2022/08/12 01:14:58;;;;;;;;;;;;;;;;;;5051267;28;20557;-56
2022/08/12 01:17:23;;;;;;;;;;;;;;;;;;5051630;28;19916;-54
2022/08/12 01:19:49;;;;;;;;;;;;;;;;;;5054376;28;20008;-54
2022/08/12 01:22:15;;;;;;;;;;;;;;;;;;5053154;28;20395;-56
2022/08/12 01:24:40;;;;;;;;;;;;;;;;;;5052705;28;20016;-53
2022/08/12 01:27:05;;;;;;;;;;;;;;;;;;5053249;28;20043;-54
2022/08/12 01:29:30;;;;;;;;;;;;;;;;;;5052126;28;19923;-55
2022/08/12 01:31:55;;;;;;;;;;;;;;;;;;5050638;28;19923;-52
2022/08/12 01:34:21;;;;;;;;;;;;;;;;;;5054367;28;19939;-54
2022/08/12 01:36:46;;;;;;;;;;;;;;;;;;5051185;28;19922;-56
2022/08/12 01:39:11;;;;;;;;;;;;;;;;;;5051960;28;20440;-52
2022/08/12 01:41:37;;;;;;;;;;;;;;;;;;5053570;28;19982;-55
2022/08/12 01:44:02;;;;;;;;;;;;;;;;;;5036005;28;19928;-55
2022/08/12 01:46:28;;;;;;;;;;;;;;;;;;5041265;28;19979;-58
2022/08/12 01:48:53;;;;;;;;;;;;;;;;;;5050804;28;19970;-54
2022/08/12 01:51:18;;;;;;;;;;;;;;;;;;5050666;28;19921;-55
2022/08/12 01:53:45;;;;;;;;;;;;;;;;;;5051136;28;19917;-52
2022/08/12 01:56:10;;;;;;;;;;;;;;;;;;5052764;28;19971;-52
2022/08/12 02:01:33;;;;;;;;;;;;;;;;;;4986373;28;20012;-58
2022/08/12 02:12:10;;;;;;;;;;;;;;;;;;5042861;28;19923;-50
2022/08/12 02:14:35;;;;;;;;;;;;;;;;;;5039794;28;20348;-54
2022/08/12 02:17:00;;;;;;;;;;;;;;;;;;5052173;28;19990;-53
2022/08/12 02:19:26;;;;;;;;;;;;;;;;;;5052111;28;19978;-53
2022/08/12 02:21:51;;;;;;;;;;;;;;;;;;5051587;28;20027;-54
2022/08/12 02:24:16;;;;;;;;;;;;;;;;;;5051344;28;19921;-52
2022/08/12 02:26:42;;;;;;;;;;;;;;;;;;5022250;28;20429;-54
2022/08/12 02:29:07;;;;;;;;;;;;;;;;;;5053018;28;20404;-53
2022/08/12 02:31:32;;;;;;;;;;;;;;;;;;5052174;28;19917;-56
2022/08/12 02:33:57;;;;;;;;;;;;;;;;;;5051173;28;19927;-51
2022/08/12 02:36:22;;;;;;;;;;;;;;;;;;5052106;28;19927;-51
2022/08/12 02:38:48;;;;;;;;;;;;;;;;;;5050727;28;19920;-56
2022/08/12 02:41:13;;;;;;;;;;;;;;;;;;5052500;28;19917;-54
2022/08/12 02:43:39;;;;;;;;;;;;;;;;;;5051153;28;19917;-56
2022/08/12 02:46:04;;;;;;;;;;;;;;;;;;5051866;28;19999;-54
2022/08/12 02:48:29;;;;;;;;;;;;;;;;;;5053903;28;20062;-53
2022/08/12 02:50:55;;;;;;;;;;;;;;;;;;5038261;28;19960;-53
2022/08/12 02:53:20;;;;;;;;;;;;;;;;;;5042205;28;19969;-55
2022/08/12 02:55:45;;;;;;;;;;;;;;;;;;5041331;28;19943;-51
2022/08/12 02:58:11;;;;;;;;;;;;;;;;;;5053271;28;19916;-54
2022/08/12 03:00:36;;;;;;;;;;;;;;;;;;5054774;28;19916;-55
2022/08/12 03:03:02;;;;;;;;;;;;;;;;;;5055189;28;20550;-53
2022/08/12 03:05:27;;;;;;;;;;;;;;;;;;5056309;28;19924;-54
2022/08/12 03:07:55;;;;;;;;;;;;;;;;;;5053558;28;19924;-54
2022/08/12 03:10:23;;;;;;;;;;;;;;;;;;5056555;28;19916;-50
2022/08/12 03:12:51;;;;;;;;;;;;;;;;;;5056063;28;19917;-52
2022/08/12 03:15:16;;;;;;;;;;;;;;;;;;5054859;28;19916;-50
2022/08/12 03:20:30;;;;;;;;;;;;;;;;;;5034814;28;19920;-52
2022/08/12 03:22:55;;;;;;;;;;;;;;;;;;5053649;28;19920;-56
2022/08/12 03:25:23;;;;;;;;;;;;;;;;;;5045606;28;19960;-55
2022/08/12 03:27:50;;;;;;;;;;;;;;;;;;5056926;28;20040;-56
2022/08/12 03:30:15;;;;;;;;;;;;;;;;;;5044220;28;20436;-53
2022/08/12 03:32:40;;;;;;;;;;;;;;;;;;5056515;28;19917;-53
2022/08/12 03:35:06;;;;;;;;;;;;;;;;;;5053384;28;20003;-55
2022/08/12 03:37:31;;;;;;;;;;;;;;;;;;5053965;28;19916;-53
2022/08/12 03:39:56;;;;;;;;;;;;;;;;;;5054852;28;19962;-56
2022/08/12 03:42:22;;;;;;;;;;;;;;;;;;5036823;28;20639;-55
2022/08/12 04:01:11;;;;;;;;;;;;;;;;;;5042703;28;19916;-55
2022/08/12 04:03:52;;;;;;;;;;;;;;;;;;5056015;28;20744;-55
2022/08/12 04:06:17;;;;;;;;;;;;;;;;;;5055340;28;19983;-52
2022/08/12 04:08:43;;;;;;;;;;;;;;;;;;5051955;28;19920;-54
2022/08/12 04:13:52;;;;;;;;;;;;;;;;;;5053725;28;19917;-54
2022/08/12 04:16:17;;;;;;;;;;;;;;;;;;5053189;28;20187;-54
2022/08/12 04:18:42;;;;;;;;;;;;;;;;;;5054657;28;19916;-57
2022/08/12 04:21:09;;;;;;;;;;;;;;;;;;5051901;28;19916;-54
2022/08/12 04:23:34;;;;;;;;;;;;;;;;;;5039441;28;19920;-54
2022/08/12 04:25:59;;;;;;;;;;;;;;;;;;5054084;28;20292;-56
2022/08/12 04:28:25;;;;;;;;;;;;;;;;;;5037764;28;20412;-56
2022/08/12 04:30:50;;;;;;;;;;;;;;;;;;5053080;28;19921;-53
2022/08/12 04:33:17;;;;;;;;;;;;;;;;;;5038007;28;19917;-56
2022/08/12 04:35:42;;;;;;;;;;;;;;;;;;5053764;28;20602;-55
2022/08/12 04:38:08;;;;;;;;;;;;;;;;;;5053401;28;19932;-55
2022/08/12 04:40:35;;;;;;;;;;;;;;;;;;5038602;28;20373;-56
2022/08/12 04:43:00;;;;;;;;;;;;;;;;;;5054658;28;19926;-56
2022/08/12 04:45:25;;;;;;;;;;;;;;;;;;5053079;28;20640;-52
2022/08/12 04:47:51;;;;;;;;;;;;;;;;;;5053744;28;19983;-54
2022/08/12 04:50:16;;;;;;;;;;;;;;;;;;5052086;28;20646;-55
2022/08/12 04:52:42;;;;;;;;;;;;;;;;;;5041023;28;19917;-55
2022/08/12 04:55:07;;;;;;;;;;;;;;;;;;5038328;28;20296;-52
2022/08/12 04:57:32;;;;;;;;;;;;;;;;;;5055532;28;19924;-55
2022/08/12 04:59:57;;;;;;;;;;;;;;;;;;5036810;28;19952;-56
2022/08/12 05:02:25;;;;;;;;;;;;;;;;;;5056514;28;19923;-52
2022/08/12 05:04:50;;;;;;;;;;;;;;;;;;5056993;28;19917;-53
2022/08/12 05:07:16;;;;;;;;;;;;;;;;;;5055651;28;20368;-55
2022/08/12 05:09:42;;;;;;;;;;;;;;;;;;5054065;28;19973;-53
2022/08/12 05:12:07;;;;;;;;;;;;;;;;;;5054973;28;19967;-54
2022/08/12 05:14:32;;;;;;;;;;;;;;;;;;5051309;28;19954;-54
2022/08/12 05:16:59;;;;;;;;;;;;;;;;;;5050941;28;20424;-55
2022/08/12 05:19:25;;;;;;;;;;;;;;;;;;5051375;28;19916;-54
2022/08/12 05:21:50;;;;;;;;;;;;;;;;;;5052451;28;20361;-56
2022/08/12 05:24:15;;;;;;;;;;;;;;;;;;5052052;28;19920;-54
2022/08/12 05:26:42;;;;;;;;;;;;;;;;;;5050409;28;19943;-54
2022/08/12 05:29:11;;;;;;;;;;;;;;;;;;5038621;28;19973;-52
2022/08/12 05:31:37;;;;;;;;;;;;;;;;;;5052739;28;20754;-53
2022/08/12 05:34:03;;;;;;;;;;;;;;;;;;5050066;28;19977;-55
2022/08/12 05:36:28;;;;;;;;;;;;;;;;;;5050200;28;20065;-55
2022/08/12 05:38:56;;;;;;;;;;;;;;;;;;5052279;28;20280;-52
2022/08/12 05:41:21;;;;;;;;;;;;;;;;;;5052552;28;19917;-53
2022/08/12 05:43:47;;;;;;;;;;;;;;;;;;5049795;28;20719;-53
2022/08/12 05:46:12;;;;;;;;;;;;;;;;;;5036425;28;20467;-54
2022/08/12 05:48:37;;;;;;;;;;;;;;;;;;5026690;28;19923;-54
2022/08/12 05:51:02;;;;;;;;;;;;;;;;;;5052904;28;19913;-53
2022/08/12 05:53:27;;;;;;;;;;;;;;;;;;5050157;28;19992;-54
2022/08/12 05:55:53;;;;;;;;;;;;;;;;;;5052983;28;19920;-53
2022/08/12 05:58:19;;;;;;;;;;;;;;;;;;5050928;28;19920;-52
2022/08/12 06:00:45;;;;;;;;;;;;;;;;;;5052477;28;20246;-52
2022/08/12 06:03:10;;;;;;;;;;;;;;;;;;5032846;28;20280;-55
2022/08/12 06:05:36;;;;;;;;;;;;;;;;;;5033881;28;19962;-52
2022/08/12 06:08:01;;;;;;;;;;;;;;;;;;5048789;28;19978;-55
2022/08/12 06:10:26;;;;;;;;;;;;;;;;;;5048846;28;20334;-57
2022/08/12 06:12:52;;;;;;;;;;;;;;;;;;5049015;28;19916;-56
2022/08/12 06:15:17;;;;;;;;;;;;;;;;;;5051254;28;19920;-55
2022/08/12 06:17:42;;;;;;;;;;;;;;;;;;5048784;28;19944;-56
2022/08/12 06:20:12;;;;;;;;;;;;;;;;;;5033118;28;19936;-58
2022/08/12 06:22:38;;;;;;;;;;;;;;;;;;5048652;28;19920;-54
2022/08/12 06:25:04;;;;;;;;;;;;;;;;;;5050359;28;19946;-54
2022/08/12 06:27:29;;;;;;;;;;;;;;;;;;5050618;28;19917;-55
2022/08/12 06:29:55;;;;;;;;;;;;;;;;;;5034837;28;19923;-58
2022/08/12 06:32:20;;;;;;;;;;;;;;;;;;5035120;28;19917;-56
2022/08/12 06:34:45;;;;;;;;;;;;;;;;;;5048269;28;19927;-54
2022/08/12 06:37:11;;;;;;;;;;;;;;;;;;5049997;28;20432;-55
2022/08/12 06:39:36;;;;;;;;;;;;;;;;;;5050144;28;19940;-54
2022/08/12 06:44:45;;;;;;;;;;;;;;;;;;5047957;28;19923;-54
2022/08/12 06:47:10;;;;;;;;;;;;;;;;;;5049529;28;19916;-56
2022/08/12 06:49:36;;;;;;;;;;;;;;;;;;5049305;28;20393;-55
2022/08/12 06:52:03;;;;;;;;;;;;;;;;;;5049673;28;19917;-57
2022/08/12 06:54:29;;;;;;;;;;;;;;;;;;5050079;28;19927;-57
2022/08/12 06:56:55;;;;;;;;;;;;;;;;;;5047141;28;20294;-57
2022/08/12 06:59:20;;;;;;;;;;;;;;;;;;5050159;28;20404;-55
2022/08/12 07:01:45;;;;;;;;;;;;;;;;;;5049327;28;19916;-57
2022/08/12 07:04:10;;;;;;;;;;;;;;;;;;5048479;28;19952;-57
2022/08/12 07:06:35;;;;;;;;;;;;;;;;;;5050023;28;19923;-56
2022/08/12 07:09:03;;;;;;;;;;;;;;;;;;5048075;28;19920;-55
2022/08/12 07:11:29;;;;;;;;;;;;;;;;;;5048457;28;19981;-56
2022/08/12 07:13:57;;;;;;;;;;;;;;;;;;5049144;28;19982;-53
2022/08/12 07:16:23;;;;;;;;;;;;;;;;;;5048423;28;19952;-55
2022/08/12 07:18:52;;;;;;;;;;;;;;;;;;5047890;28;20006;-54
2022/08/12 07:21:18;;;;;;;;;;;;;;;;;;5049451;28;19917;-58
2022/08/12 07:23:43;;;;;;;;;;;;;;;;;;5048146;28;19921;-54
2022/08/12 07:26:09;;;;;;;;;;;;;;;;;;5048928;28;19923;-54
2022/08/12 07:28:34;;;;;;;;;;;;;;;;;;5049475;28;19913;-56
2022/08/12 07:30:59;;;;;;;;;;;;;;;;;;5033043;28;19916;-55
2022/08/12 07:33:26;;;;;;;;;;;;;;;;;;5048989;28;19927;-54
2022/08/12 07:35:52;;;;;;;;;;;;;;;;;;5049257;28;20432;-55
2022/08/12 07:38:23;;;;;;;;;;;;;;;;;;5049748;28;19917;-55
2022/08/12 07:40:48;;;;;;;;;;;;;;;;;;5047672;28;20012;-56
2022/08/12 07:43:13;;;;;;;;;;;;;;;;;;5032908;28;20713;-54
2022/08/12 07:45:39;;;;;;;;;;;;;;;;;;5037480;28;19966;-55
2022/08/12 07:48:04;;;;;;;;;;;;;;;;;;5053036;28;19960;-56
2022/08/12 07:50:29;;;;;;;;;;;;;;;;;;5032617;28;20319;-57
2022/08/12 07:52:54;;;;;;;;;;;;;;;;;;5051345;28;19917;-55
2022/08/12 07:55:20;;;;;;;;;;;;;;;;;;5051095;28;19964;-55
2022/08/12 07:57:45;;;;;;;;;;;;;;;;;;5051258;28;19916;-56
2022/08/12 08:00:10;;;;;;;;;;;;;;;;;;5052924;28;19948;-56
2022/08/12 08:02:35;;;;;;;;;;;;;;;;;;5051835;28;19916;-56
2022/08/12 08:05:01;;;;;;;;;;;;;;;;;;5052520;28;19917;-56
2022/08/12 08:07:29;;;;;;;;;;;;;;;;;;5052250;28;20464;-57
2022/08/12 08:09:56;;;;;;;;;;;;;;;;;;5034094;28;19920;-56
2022/08/12 08:15:05;;;;;;;;;;;;;;;;;;5052507;28;20011;-55
2022/08/12 08:17:30;;;;;;;;;;;;;;;;;;5033665;28;19921;-57
2022/08/12 08:19:56;;;;;;;;;;;;;;;;;;5051478;28;19916;-56
2022/08/12 08:22:21;;;;;;;;;;;;;;;;;;5052046;28;19916;-58
2022/08/12 08:24:50;;;;;;;;;;;;;;;;;;5053505;28;19916;-58
2022/08/12 08:27:15;;;;;;;;;;;;;;;;;;5050850;28;20106;-55
2022/08/12 08:29:43;;;;;;;;;;;;;;;;;;5052012;28;20449;-57
2022/08/12 08:32:08;;;;;;;;;;;;;;;;;;5051972;28;19986;-54
2022/08/12 08:34:35;;;;;;;;;;;;;;;;;;5039952;28;20365;-57
2022/08/12 08:37:00;;;;;;;;;;;;;;;;;;5037351;28;19921;-56
2022/08/12 08:39:26;;;;;;;;;;;;;;;;;;5051381;28;19916;-56
2022/08/12 08:44:36;;;;;;;;;;;;;;;;;;5049800;28;19917;-57
2022/08/12 08:47:02;;;;;;;;;;;;;;;;;;5049894;28;20016;-56
2022/08/12 08:49:27;;;;;;;;;;;;;;;;;;5038088;28;19962;-56
2022/08/12 08:51:52;;;;;;;;;;;;;;;;;;5051872;28;20041;-56
2022/08/12 08:54:18;;;;;;;;;;;;;;;;;;5050180;28;19920;-57
2022/08/12 08:56:43;;;;;;;;;;;;;;;;;;5049517;28;19970;-57
2022/08/12 08:59:10;;;;;;;;;;;;;;;;;;5049741;28;19928;-59
2022/08/12 09:01:35;;;;;;;;;;;;;;;;;;5050274;28;19917;-55
2022/08/12 09:04:00;;;;;;;;;;;;;;;;;;5049699;28;20321;-57
2022/08/12 09:06:25;;;;;;;;;;;;;;;;;;5042244;28;19920;-56
2022/08/12 09:08:51;;;;;;;;;;;;;;;;;;5051296;28;19916;-58
2022/08/12 09:14:06;;;;;;;;;;;;;;;;;;5051555;28;20316;-58
2022/08/12 09:16:31;;;;;;;;;;;;;;;;;;5050886;28;19927;-57
2022/08/12 09:18:57;;;;;;;;;;;;;;;;;;5036016;28;19916;-57
2022/08/12 09:21:22;;;;;;;;;;;;;;;;;;5049704;28;19917;-56
2022/08/12 09:23:49;;;;;;;;;;;;;;;;;;5049766;28;20634;-57
2022/08/12 09:26:17;;;;;;;;;;;;;;;;;;5036203;28;20049;-55
2022/08/12 09:28:46;;;;;;;;;;;;;;;;;;5048477;28;19916;-55
2022/08/12 09:31:11;;;;;;;;;;;;;;;;;;5050047;28;19916;-57
2022/08/12 09:33:36;;;;;;;;;;;;;;;;;;5050917;28;19920;-56
2022/08/12 09:36:04;;;;;;;;;;;;;;;;;;5047994;28;19921;-57
2022/08/12 09:38:29;;;;;;;;;;;;;;;;;;5048435;28;19978;-56
2022/08/12 09:40:56;;;;;;;;;;;;;;;;;;5050987;28;19917;-58
2022/08/12 09:46:06;;;;;;;;;;;;;;;;;;5047682;28;19939;-54
2022/08/12 09:48:33;;;;;;;;;;;;;;;;;;5035083;28;19917;-58
2022/08/12 09:50:58;;;;;;;;;;;;;;;;;;5049324;28;20395;-56
2022/08/12 09:53:23;;;;;;;;;;;;;;;;;;5049161;28;19921;-55
2022/08/12 09:55:51;;;;;;;;;;;;;;;;;;5049198;28;19925;-54
2022/08/12 09:58:16;;;;;;;;;;;;;;;;;;5049735;28;19978;-54
2022/08/12 10:00:41;;;;;;;;;;;;;;;;;;5050427;28;20304;-57
2022/08/12 10:03:09;;;;;;;;;;;;;;;;;;5049551;28;19960;-55
2022/08/12 10:05:37;;;;;;;;;;;;;;;;;;5048887;28;19916;-57
2022/08/12 10:08:03;;;;;;;;;;;;;;;;;;5049374;28;20005;-54
2022/08/12 10:10:28;;;;;;;;;;;;;;;;;;5048948;28;20003;-54
2022/08/12 10:15:38;;;;;;;;;;;;;;;;;;5049256;28;19924;-56
2022/08/12 10:18:04;;;;;;;;;;;;;;;;;;5050236;28;20317;-57
2022/08/12 10:20:29;;;;;;;;;;;;;;;;;;5037111;28;19923;-55
2022/08/12 10:22:54;;;;;;;;;;;;;;;;;;5040078;28;19928;-56
2022/08/12 10:30:47;;;;;;;;;;;;;;;;;;5047741;28;19916;-56
2022/08/12 10:33:14;;;;;;;;;;;;;;;;;;5049121;28;19917;-57
2022/08/12 10:35:42;;;;;;;;;;;;;;;;;;5049356;28;19920;-57
2022/08/12 10:38:11;;;;;;;;;;;;;;;;;;5047881;28;19923;-57
2022/08/12 10:43:39;;;;;;;;;;;;;;;;;;5047284;28;19999;-52
2022/08/12 10:43:41;;;;;;;;;;;;;;;;;;5049191;28;19923;-57
2022/08/12 10:46:06;;;;;;;;;;;;;;;;;;5047973;28;19916;-56
2022/08/12 10:48:31;;;;;;;;;;;;;;;;;;5049594;28;20648;-57
2022/08/12 10:50:57;;;;;;;;;;;;;;;;;;5048798;28;19916;-55
2022/08/12 10:53:23;;;;;;;;;;;;;;;;;;5048843;28;19920;-57
2022/08/12 10:55:50;;;;;;;;;;;;;;;;;;5048572;28;19967;-56
2022/08/12 10:58:15;;;;;;;;;;;;;;;;;;5049092;28;19917;-58
2022/08/12 11:00:40;;;;;;;;;;;;;;;;;;5049083;28;19913;-56
2022/08/12 11:03:06;;;;;;;;;;;;;;;;;;5047572;28;20305;-57
2022/08/12 11:05:33;;;;;;;;;;;;;;;;;;5041294;28;19970;-58
2022/08/12 11:08:00;;;;;;;;;;;;;;;;;;5032871;28;19917;-58
2022/08/12 11:10:25;;;;;;;;;;;;;;;;;;5047684;28;19916;-57
2022/08/12 11:12:53;;;;;;;;;;;;;;;;;;5048857;28;19939;-56
2022/08/12 11:15:22;;;;;;;;;;;;;;;;;;5048312;28;20581;-57
2022/08/12 11:17:47;;;;;;;;;;;;;;;;;;5048530;28;20001;-56
2022/08/12 11:20:12;;;;;;;;;;;;;;;;;;5050953;28;20027;-54
2022/08/12 11:22:38;;;;;;;;;;;;;;;;;;5053576;28;19927;-57
2022/08/12 11:25:03;;;;;;;;;;;;;;;;;;5052538;28;20021;-56
2022/08/12 11:27:28;;;;;;;;;;;;;;;;;;5054043;28;19974;-58
2022/08/12 11:29:53;;;;;;;;;;;;;;;;;;5052437;28;20385;-54
2022/08/12 11:32:18;;;;;;;;;;;;;;;;;;5054603;28;19921;-57
2022/08/12 11:34:44;;;;;;;;;;;;;;;;;;5053368;28;19928;-58
2022/08/12 11:37:09;;;;;;;;;;;;;;;;;;5051991;28;19932;-58
2022/08/12 11:39:34;;;;;;;;;;;;;;;;;;5051512;28;19964;-58
2022/08/12 11:41:59;;;;;;;;;;;;;;;;;;5053044;28;20036;-59
2022/08/12 11:44:24;;;;;;;;;;;;;;;;;;5050238;28;20302;-59
2022/08/12 11:46:50;;;;;;;;;;;;;;;;;;5052141;28;20448;-58
2022/08/12 11:49:15;;;;;;;;;;;;;;;;;;5053107;28;19920;-62
2022/08/12 11:51:40;;;;;;;;;;;;;;;;;;5038109;28;19923;-59
2022/08/12 11:54:05;;;;;;;;;;;;;;;;;;5051918;28;19970;-59
2022/08/12 11:56:30;;;;;;;;;;;;;;;;;;5052589;28;19927;-58
2022/08/12 11:58:56;;;;;;;;;;;;;;;;;;5050533;28;19917;-58
2022/08/12 12:01:21;;;;;;;;;;;;;;;;;;5036569;28;20800;-59
2022/08/12 12:03:46;;;;;;;;;;;;;;;;;;5051281;28;20648;-58
2022/08/12 12:06:12;;;;;;;;;;;;;;;;;;5050557;28;20466;-58
2022/08/12 12:08:37;;;;;;;;;;;;;;;;;;5050480;28;19917;-57
2022/08/12 12:11:02;;;;;;;;;;;;;;;;;;5049989;28;20439;-57
2022/08/12 12:13:27;;;;;;;;;;;;;;;;;;5051432;28;19927;-58
2022/08/12 12:15:53;;;;;;;;;;;;;;;;;;5049587;28;19924;-58
2022/08/12 12:18:18;;;;;;;;;;;;;;;;;;5049034;28;19928;-58
2022/08/12 12:20:43;;;;;;;;;;;;;;;;;;5050304;28;19922;-58
2022/08/12 12:23:08;;;;;;;;;;;;;;;;;;5035191;28;19925;-57
2022/08/12 12:25:33;;;;;;;;;;;;;;;;;;5050992;28;19916;-56
2022/08/12 12:27:59;;;;;;;;;;;;;;;;;;5038636;28;20163;-57
2022/08/12 12:30:24;;;;;;;;;;;;;;;;;;5051518;28;19917;-57
2022/08/12 12:32:49;;;;;;;;;;;;;;;;;;5052775;28;20373;-57
2022/08/12 12:35:14;;;;;;;;;;;;;;;;;;5050624;28;20365;-57
2022/08/12 12:37:39;;;;;;;;;;;;;;;;;;5040322;28;19925;-56
2022/08/12 12:40:05;;;;;;;;;;;;;;;;;;5052326;28;20727;-57
2022/08/12 12:42:30;;;;;;;;;;;;;;;;;;5053186;28;19912;-57
2022/08/12 12:44:55;;;;;;;;;;;;;;;;;;5051529;28;20301;-57
2022/08/12 12:47:21;;;;;;;;;;;;;;;;;;5052538;28;20595;-57
2022/08/12 12:49:46;;;;;;;;;;;;;;;;;;5055528;28;20642;-57
2022/08/12 12:52:11;;;;;;;;;;;;;;;;;;5051409;28;19917;-57
2022/08/12 12:54:36;;;;;;;;;;;;;;;;;;5052595;28;19967;-58
2022/08/12 12:57:01;;;;;;;;;;;;;;;;;;5053450;28;19921;-57
2022/08/12 12:59:27;;;;;;;;;;;;;;;;;;5052628;28;20369;-57
2022/08/12 13:01:52;;;;;;;;;;;;;;;;;;5051636;28;19917;-57
2022/08/12 13:04:18;;;;;;;;;;;;;;;;;;5050663;28;19920;-57
2022/08/12 13:06:44;;;;;;;;;;;;;;;;;;5053427;28;20087;-58
2022/08/12 13:09:11;;;;;;;;;;;;;;;;;;5037744;28;19920;-57
2022/08/12 13:11:37;;;;;;;;;;;;;;;;;;5053628;28;20040;-56
2022/08/12 13:14:03;;;;;;;;;;;;;;;;;;5039739;28;20561;-57
2022/08/12 13:16:29;;;;;;;;;;;;;;;;;;5054168;28;19920;-57
2022/08/12 13:18:54;;;;;;;;;;;;;;;;;;5052658;28;19970;-57
2022/08/12 13:21:19;;;;;;;;;;;;;;;;;;5052098;28;19940;-58
2022/08/12 13:23:45;;;;;;;;;;;;;;;;;;5053439;28;20042;-57
2022/08/12 13:26:10;;;;;;;;;;;;;;;;;;5053283;28;19920;-58
2022/08/12 13:28:35;;;;;;;;;;;;;;;;;;5054233;28;19969;-58
2022/08/12 13:31:01;;;;;;;;;;;;;;;;;;5051937;28;20531;-58
2022/08/12 13:33:27;;;;;;;;;;;;;;;;;;5038461;28;20277;-58
2022/08/12 13:35:52;;;;;;;;;;;;;;;;;;5052402;28;20361;-58
2022/08/12 13:38:17;;;;;;;;;;;;;;;;;;5053546;28;19917;-58
2022/08/12 13:40:43;;;;;;;;;;;;;;;;;;5051236;28;19926;-58
2022/08/12 13:43:14;;;;;;;;;;;;;;;;;;5051442;28;19917;-58
2022/08/12 13:45:39;;;;;;;;;;;;;;;;;;5036161;28;19918;-57
2022/08/12 13:48:04;;;;;;;;;;;;;;;;;;5051300;28;19924;-57
2022/08/12 13:50:35;;;;;;;;;;;;;;;;;;5051977;28;20410;-57
2022/08/12 13:53:00;;;;;;;;;;;;;;;;;;5052618;28;20731;-57
2022/08/12 13:55:25;;;;;;;;;;;;;;;;;;5051174;28;19925;-57
2022/08/12 13:57:50;;;;;;;;;;;;;;;;;;5053265;28;19919;-58
2022/08/12 14:00:15;;;;;;;;;;;;;;;;;;5051284;28;19987;-57
2022/08/12 14:02:41;;;;;;;;;;;;;;;;;;5050818;28;19917;-57
2022/08/12 14:05:08;;;;;;;;;;;;;;;;;;5050741;28;20488;-57
2022/08/12 14:07:37;;;;;;;;;;;;;;;;;;5050673;28;19943;-57
2022/08/12 14:12:46;;;;;;;;;;;;;;;;;;5051319;28;19917;-58
2022/08/12 14:15:13;;;;;;;;;;;;;;;;;;5048279;28;20502;-58
2022/08/12 14:17:38;;;;;;;;;;;;;;;;;;5049506;28;20343;-57
2022/08/12 14:20:12;;;;;;;;;;;;;;;;;;5051759;28;20377;-58
2022/08/12 14:22:37;;;;;;;;;;;;;;;;;;5050306;28;21944;-58
2022/08/12 14:25:03;;;;;;;;;;;;;;;;;;5050020;28;20525;-58
2022/08/12 14:27:28;;;;;;;;;;;;;;;;;;5049233;28;19974;-58
2022/08/12 14:29:54;;;;;;;;;;;;;;;;;;5046868;28;19923;-58
2022/08/12 14:32:19;;;;;;;;;;;;;;;;;;5046992;28;19917;-58
2022/08/12 14:34:44;;;;;;;;;;;;;;;;;;5050210;28;19917;-58
2022/08/12 14:37:09;;;;;;;;;;;;;;;;;;5048810;28;19924;-58
2022/08/12 14:39:34;;;;;;;;;;;;;;;;;;5049911;28;20278;-58
2022/08/12 14:42:00;;;;;;;;;;;;;;;;;;5050398;28;20384;-58
2022/08/12 14:44:25;;;;;;;;;;;;;;;;;;5050144;28;20270;-58
2022/08/12 14:46:54;;;;;;;;;;;;;;;;;;5049335;28;20002;-58
2022/08/12 14:49:20;;;;;;;;;;;;;;;;;;5049527;28;19917;-58
2022/08/12 14:51:45;;;;;;;;;;;;;;;;;;5038273;28;19916;-58
2022/08/12 14:54:11;;;;;;;;;;;;;;;;;;5060039;28;20007;-58
2022/08/12 14:56:36;;;;;;;;;;;;;;;;;;5055509;28;20506;-58
2022/08/12 15:01:46;;;;;;;;;;;;;;;;;;5054452;28;19940;-59
2022/08/12 15:04:11;;;;;;;;;;;;;;;;;;5053480;28;19939;-58
2022/08/12 15:06:36;;;;;;;;;;;;;;;;;;5038460;28;19952;-59
2022/08/12 15:09:01;;;;;;;;;;;;;;;;;;5054038;28;19916;-58
2022/08/12 15:11:27;;;;;;;;;;;;;;;;;;5039308;28;19925;-59
2022/08/12 15:13:53;;;;;;;;;;;;;;;;;;5051466;28;19956;-58
2022/08/12 15:16:18;;;;;;;;;;;;;;;;;;5052249;28;19924;-58
2022/08/12 15:18:43;;;;;;;;;;;;;;;;;;5043135;28;19971;-58
2022/08/12 15:21:09;;;;;;;;;;;;;;;;;;5052772;28;19917;-59
2022/08/12 15:23:34;;;;;;;;;;;;;;;;;;5041158;28;19916;-59
2022/08/12 15:25:59;;;;;;;;;;;;;;;;;;5054959;28;19917;-59
2022/08/12 15:28:24;;;;;;;;;;;;;;;;;;5053247;28;19939;-58
2022/08/12 15:30:52;;;;;;;;;;;;;;;;;;5036918;28;20574;-58
2022/08/12 15:33:18;;;;;;;;;;;;;;;;;;5037348;28;20021;-58
2022/08/12 15:35:43;;;;;;;;;;;;;;;;;;5053238;28;20055;-59
2022/08/12 15:38:09;;;;;;;;;;;;;;;;;;5037775;28;19916;-59
2022/08/12 15:40:35;;;;;;;;;;;;;;;;;;5050067;28;19958;-56
2022/08/12 15:43:00;;;;;;;;;;;;;;;;;;5050713;28;19936;-57
2022/08/12 15:45:25;;;;;;;;;;;;;;;;;;5043618;28;20464;-57
2022/08/12 15:47:54;;;;;;;;;;;;;;;;;;5039104;28;19924;-58
2022/08/12 15:50:19;;;;;;;;;;;;;;;;;;5050195;28;19917;-58
2022/08/12 15:52:44;;;;;;;;;;;;;;;;;;5045337;28;19923;-58
2022/08/12 15:55:12;;;;;;;;;;;;;;;;;;5050150;28;19973;-57
2022/08/12 15:57:38;;;;;;;;;;;;;;;;;;5043733;28;20040;-57
2022/08/12 16:00:04;;;;;;;;;;;;;;;;;;5043748;28;20460;-57
2022/08/12 16:02:36;;;;;;;;;;;;;;;;;;5050609;28;19920;-57
2022/08/12 16:05:02;;;;;;;;;;;;;;;;;;5041594;28;20442;-58
2022/08/12 16:07:27;;;;;;;;;;;;;;;;;;5049048;28;19924;-58
2022/08/12 16:09:52;;;;;;;;;;;;;;;;;;5032136;28;20625;-58
2022/08/12 16:12:17;;;;;;;;;;;;;;;;;;5030902;28;20385;-58
2022/08/12 16:14:43;;;;;;;;;;;;;;;;;;5046494;28;20592;-58
2022/08/12 16:17:08;;;;;;;;;;;;;;;;;;5043972;28;20544;-58
2022/08/12 16:19:35;;;;;;;;;;;;;;;;;;5047913;28;19916;-58
2022/08/12 16:22:01;;;;;;;;;;;;;;;;;;5046696;28;20175;-59
2022/08/12 16:24:26;;;;;;;;;;;;;;;;;;5027516;28;19920;-59
2022/08/12 16:26:51;;;;;;;;;;;;;;;;;;5049908;28;19927;-58
2022/08/12 16:29:25;;;;;;;;;;;;;;;;;;5042324;28;19975;-57
2022/08/12 16:31:50;;;;;;;;;;;;;;;;;;5047989;28;20515;-58
2022/08/12 16:34:17;;;;;;;;;;;;;;;;;;5043567;28;19982;-58
2022/08/12 16:36:44;;;;;;;;;;;;;;;;;;5044331;28;19924;-57
2022/08/12 16:39:09;;;;;;;;;;;;;;;;;;5048933;28;19959;-58
2022/08/12 16:41:35;;;;;;;;;;;;;;;;;;5027067;28;20027;-58
2022/08/12 16:44:00;;;;;;;;;;;;;;;;;;5049843;28;19925;-57
2022/08/12 16:46:25;;;;;;;;;;;;;;;;;;5041915;28;20016;-57
2022/08/12 16:48:53;;;;;;;;;;;;;;;;;;5049819;28;19917;-57
2022/08/12 16:51:19;;;;;;;;;;;;;;;;;;5048738;28;19921;-58
2022/08/12 16:53:44;;;;;;;;;;;;;;;;;;5043720;28;20667;-58
2022/08/12 16:56:11;;;;;;;;;;;;;;;;;;5048380;28;19920;-58
2022/08/12 16:58:36;;;;;;;;;;;;;;;;;;5047885;28;20753;-58
2022/08/12 17:01:01;;;;;;;;;;;;;;;;;;5044820;28;19924;-58
2022/08/12 17:03:26;;;;;;;;;;;;;;;;;;5050321;28;19917;-58
2022/08/12 17:05:52;;;;;;;;;;;;;;;;;;5044409;28;20060;-58
2022/08/12 17:08:20;;;;;;;;;;;;;;;;;;5047644;28;20011;-58
2022/08/12 17:10:45;;;;;;;;;;;;;;;;;;5042035;28;19917;-58
2022/08/12 17:13:10;;;;;;;;;;;;;;;;;;5041347;28;20519;-58
2022/08/12 17:15:36;;;;;;;;;;;;;;;;;;5033117;28;19985;-57
2022/08/12 17:18:01;;;;;;;;;;;;;;;;;;5046611;28;19923;-58
2022/08/12 17:20:27;;;;;;;;;;;;;;;;;;5056512;28;20611;-57
2022/08/12 17:22:55;;;;;;;;;;;;;;;;;;5051466;28;19926;-57
2022/08/12 17:25:20;;;;;;;;;;;;;;;;;;5043295;28;19921;-58
2022/08/12 17:27:45;;;;;;;;;;;;;;;;;;5035533;28;20301;-58
2022/08/12 17:30:11;;;;;;;;;;;;;;;;;;5027626;28;20573;-57
2022/08/12 17:32:38;;;;;;;;;;;;;;;;;;5047254;28;19921;-57
2022/08/12 17:38:02;;;;;;;;;;;;;;;;;;5037687;28;20364;-57
2022/08/12 17:40:29;;;;;;;;;;;;;;;;;;5035308;28;19931;-57
2022/08/12 17:42:54;;;;;;;;;;;;;;;;;;5024836;28;19924;-58
2022/08/12 17:45:20;;;;;;;;;;;;;;;;;;5029433;28;19917;-58
2022/08/12 17:47:45;;;;;;;;;;;;;;;;;;5031344;28;19971;-58
2022/08/12 17:50:11;;;;;;;;;;;;;;;;;;5025598;28;19918;-58
2022/08/12 17:52:37;;;;;;;;;;;;;;;;;;5033320;28;19917;-59
2022/08/12 17:55:02;;;;;;;;;;;;;;;;;;5030774;28;19917;-58
2022/08/12 17:57:28;;;;;;;;;;;;;;;;;;5027701;28;19924;-57
2022/08/12 17:59:53;;;;;;;;;;;;;;;;;;5030101;28;19924;-56
2022/08/12 18:02:19;;;;;;;;;;;;;;;;;;5023227;28;19921;-56
2022/08/12 18:04:45;;;;;;;;;;;;;;;;;;5003140;28;19925;-56
2022/08/12 18:07:10;;;;;;;;;;;;;;;;;;5000229;28;20322;-56
2022/08/12 18:09:36;;;;;;;;;;;;;;;;;;5006616;28;19921;-59
2022/08/12 18:14:45;;;;;;;;;;;;;;;;;;5001541;28;19953;-55
2022/08/12 18:17:10;;;;;;;;;;;;;;;;;;5006832;28;20033;-56
2022/08/12 18:19:36;;;;;;;;;;;;;;;;;;4998966;28;20889;-54
2022/08/12 18:22:01;;;;;;;;;;;;;;;;;;5007052;28;19918;-57
2022/08/12 18:24:26;;;;;;;;;;;;;;;;;;5000336;28;19972;-55
2022/08/12 18:26:51;;;;;;;;;;;;;;;;;;5001086;28;20012;-56
2022/08/12 18:29:16;;;;;;;;;;;;;;;;;;5004820;28;19922;-57
2022/08/12 18:31:42;;;;;;;;;;;;;;;;;;4998898;28;19948;-56
2022/08/12 18:34:07;;;;;;;;;;;;;;;;;;5006686;28;19918;-58